createdAt,value
2023-01-19T00:00:53.262Z,1.85
2023-01-19T00:03:20.658Z,1.87
2023-01-19T00:05:47.658Z,1.85
2023-01-19T00:08:16.941Z,1.77
2023-01-19T00:10:47.219Z,1.78
2023-01-19T00:13:15.483Z,1.79
2023-01-19T00:15:42.956Z,1.77
2023-01-19T00:18:11.201Z,1.80
2023-01-19T00:20:38.948Z,1.80
2023-01-19T00:23:08.190Z,1.81
2023-01-19T00:25:36.121Z,1.80
2023-01-19T00:28:03.094Z,1.79
2023-01-19T00:30:30.090Z,1.81
2023-01-19T00:32:57.135Z,1.78
2023-01-19T00:35:24.189Z,1.80
2023-01-19T00:37:51.350Z,1.79
2023-01-19T00:40:18.547Z,1.81
2023-01-19T00:42:46.052Z,1.80
2023-01-19T00:45:23.974Z,1.80
2023-01-19T00:47:57.505Z,1.75
2023-01-19T00:50:26.495Z,1.76
2023-01-19T00:52:55.521Z,1.75
2023-01-19T00:55:23.633Z,1.76
2023-01-19T00:57:50.552Z,1.77
2023-01-19T01:00:19.978Z,1.77
2023-01-19T01:02:49.301Z,1.76
2023-01-19T01:05:17.476Z,1.77
2023-01-19T01:07:45.422Z,1.77
2023-01-19T01:10:15.015Z,1.75
2023-01-19T01:12:42.155Z,1.71
2023-01-19T01:15:24.051Z,1.75
2023-01-19T01:17:53.180Z,1.78
2023-01-19T01:20:27.142Z,1.76
2023-01-19T01:22:54.870Z,1.77
2023-01-19T01:25:23.752Z,1.76
2023-01-19T01:27:51.248Z,1.70
2023-01-19T01:30:18.499Z,1.70
2023-01-19T01:32:45.461Z,1.70
2023-01-19T01:35:13.595Z,1.72
2023-01-19T01:37:42.659Z,1.76
2023-01-19T01:40:13.428Z,1.75
2023-01-19T01:42:40.708Z,1.77
2023-01-19T01:45:25.990Z,1.77
2023-01-19T01:47:54.679Z,1.77
2023-01-19T01:50:24.227Z,1.81
2023-01-19T01:53:08.898Z,1.79
2023-01-19T01:55:41.247Z,1.77
2023-01-19T01:58:10.615Z,1.78
2023-01-19T02:00:57.655Z,1.75
2023-01-19T02:03:26.562Z,1.79
2023-01-19T02:05:57.649Z,1.79
2023-01-19T02:09:05.240Z,1.73
2023-01-19T02:11:51.357Z,1.72
2023-01-19T02:14:19.170Z,1.71
2023-01-19T02:16:46.721Z,1.71
2023-01-19T02:19:22.767Z,1.69
2023-01-19T02:22:08.221Z,1.67
2023-01-19T02:24:36.131Z,1.62
2023-01-19T02:27:03.412Z,1.60
2023-01-19T02:29:30.748Z,1.63
2023-01-19T02:31:59.847Z,1.61
2023-01-19T02:34:26.881Z,1.62
2023-01-19T02:36:56.026Z,1.60
2023-01-19T02:39:29.199Z,1.55
2023-01-19T02:42:03.577Z,1.55
2023-01-19T02:44:31.912Z,1.57
2023-01-19T02:46:59.119Z,1.57
2023-01-19T02:49:30.186Z,1.58
2023-01-19T02:51:58.789Z,1.57
2023-01-19T02:54:42.112Z,1.56
2023-01-19T02:57:27.836Z,1.52
2023-01-19T03:00:04.084Z,1.52
2023-01-19T03:02:52.850Z,1.53
2023-01-19T03:05:49.660Z,1.53
2023-01-19T03:08:52.079Z,1.50
2023-01-19T03:11:19.352Z,1.53
2023-01-19T03:13:48.831Z,1.50
2023-01-19T03:16:41.061Z,1.53
2023-01-19T03:19:23.150Z,1.53
2023-01-19T03:21:56.448Z,1.51
2023-01-19T03:24:26.543Z,1.49
2023-01-19T03:27:01.085Z,1.49
2023-01-19T03:29:37.362Z,1.49
2023-01-19T03:32:09.442Z,1.47
2023-01-19T03:34:39.252Z,1.51
2023-01-19T03:37:08.550Z,1.49
2023-01-19T03:39:35.617Z,1.46
2023-01-19T03:42:08.467Z,1.46
2023-01-19T03:44:37.998Z,1.43
2023-01-19T03:47:07.396Z,1.42
2023-01-19T03:49:36.283Z,1.42
2023-01-19T03:52:03.509Z,1.40
2023-01-19T03:54:34.066Z,1.37
2023-01-19T03:57:01.018Z,1.39
2023-01-19T03:59:27.919Z,1.40
2023-01-19T04:01:54.989Z,1.37
2023-01-19T04:04:21.925Z,1.38
2023-01-19T04:06:49.255Z,1.38
2023-01-19T04:09:17.518Z,1.39
2023-01-19T04:11:45.501Z,1.38
2023-01-19T04:14:12.378Z,1.41
2023-01-19T04:16:39.853Z,1.40
2023-01-19T04:19:06.671Z,1.41
2023-01-19T04:21:33.586Z,1.38
2023-01-19T04:24:01.171Z,1.35
2023-01-19T04:26:28.385Z,1.36
2023-01-19T04:28:55.286Z,1.37
2023-01-19T04:31:23.377Z,1.35
2023-01-19T04:33:50.320Z,1.34
2023-01-19T04:36:17.406Z,1.32
2023-01-19T04:38:46.620Z,1.34
2023-01-19T04:41:13.545Z,1.35
2023-01-19T04:43:40.883Z,1.32
2023-01-19T04:46:07.865Z,1.32
2023-01-19T04:48:34.903Z,1.32
2023-01-19T04:51:01.892Z,1.33
2023-01-19T04:53:28.937Z,1.32
2023-01-19T04:55:56.130Z,1.32
2023-01-19T04:58:23.478Z,1.32
2023-01-19T05:00:51.276Z,1.32
2023-01-19T05:03:19.399Z,1.32
2023-01-19T05:05:46.885Z,1.32
2023-01-19T05:08:13.830Z,1.28
2023-01-19T05:10:40.860Z,1.29
2023-01-19T05:13:07.751Z,1.29
2023-01-19T05:15:34.684Z,1.31
2023-01-19T05:18:01.517Z,1.34
2023-01-19T05:20:28.473Z,1.28
2023-01-19T05:22:55.316Z,1.31
2023-01-19T05:25:22.423Z,1.32
2023-01-19T05:27:49.328Z,1.31
2023-01-19T05:30:16.544Z,1.31
2023-01-19T05:32:43.412Z,1.28
2023-01-19T05:35:10.565Z,1.31
2023-01-19T05:37:37.586Z,1.32
2023-01-19T05:40:05.429Z,1.27
2023-01-19T05:42:33.021Z,1.28
2023-01-19T05:45:00.342Z,1.26
2023-01-19T05:47:30.259Z,1.26
2023-01-19T05:49:57.672Z,1.27
2023-01-19T05:52:27.311Z,1.24
2023-01-19T05:54:55.260Z,1.24
2023-01-19T05:57:23.010Z,1.27
2023-01-19T05:59:51.903Z,1.25
2023-01-19T06:02:18.859Z,1.23
2023-01-19T06:04:45.863Z,1.24
2023-01-19T06:07:12.728Z,1.24
2023-01-19T06:09:39.756Z,1.23
2023-01-19T06:12:06.803Z,1.25
2023-01-19T06:14:33.763Z,1.22
2023-01-19T06:17:00.632Z,1.22
2023-01-19T06:19:27.813Z,1.22
2023-01-19T06:21:54.765Z,1.20
2023-01-19T06:24:21.932Z,1.23
2023-01-19T06:26:48.874Z,1.22
2023-01-19T06:29:15.920Z,1.25
2023-01-19T06:31:43.097Z,1.23
2023-01-19T06:34:10.448Z,1.25
2023-01-19T06:36:37.458Z,1.26
2023-01-19T06:39:06.106Z,1.28
2023-01-19T06:41:33.940Z,1.29
2023-01-19T06:44:01.373Z,1.27
2023-01-19T06:46:28.635Z,1.22
2023-01-19T06:48:55.774Z,1.22
2023-01-19T06:51:23.436Z,1.26
2023-01-19T06:53:50.503Z,1.26
2023-01-19T06:56:17.362Z,1.23
2023-01-19T06:58:46.694Z,1.24
2023-01-19T07:01:14.048Z,1.25
2023-01-19T07:03:41.029Z,1.26
2023-01-19T07:06:08.378Z,1.25
2023-01-19T07:08:36.984Z,1.26
2023-01-19T07:11:27.146Z,1.29
2023-01-19T07:13:55.605Z,1.29
2023-01-19T07:16:23.491Z,1.29
2023-01-19T07:18:51.067Z,1.32
2023-01-19T07:21:18.066Z,1.31
2023-01-19T07:23:48.772Z,1.31
2023-01-19T07:26:18.678Z,1.31
2023-01-19T07:28:47.357Z,1.31
2023-01-19T07:31:15.653Z,1.31
2023-01-19T07:33:42.722Z,1.34
2023-01-19T07:36:10.124Z,1.35
2023-01-19T07:38:37.124Z,1.33
2023-01-19T07:41:05.829Z,1.35
2023-01-19T07:43:33.248Z,1.33
2023-01-19T07:46:02.498Z,1.31
2023-01-19T07:48:30.024Z,1.33
2023-01-19T07:51:18.043Z,1.33
2023-01-19T07:53:50.716Z,1.33
2023-01-19T07:56:17.592Z,1.34
2023-01-19T07:58:44.432Z,1.34
2023-01-19T08:01:13.431Z,1.35
2023-01-19T08:03:40.783Z,1.34
2023-01-19T08:06:07.793Z,1.39
2023-01-19T08:08:35.164Z,1.42
2023-01-19T08:11:02.064Z,1.28
2023-01-19T08:13:28.878Z,1.37
2023-01-19T08:15:55.833Z,1.40
2023-01-19T08:18:22.948Z,1.40
2023-01-19T08:20:49.953Z,1.41
2023-01-19T08:23:18.183Z,1.41
2023-01-19T08:25:46.031Z,1.41
2023-01-19T08:28:15.135Z,1.40
2023-01-19T08:30:44.404Z,1.42
2023-01-19T08:33:12.710Z,1.40
2023-01-19T08:35:47.273Z,1.41
2023-01-19T08:38:14.894Z,1.40
2023-01-19T08:40:42.113Z,1.42
2023-01-19T08:43:14.515Z,1.40
2023-01-19T08:45:48.212Z,1.41
2023-01-19T08:48:17.164Z,1.42
2023-01-19T08:50:46.830Z,1.39
2023-01-19T08:53:14.417Z,1.45
2023-01-19T08:55:41.362Z,1.45
2023-01-19T08:58:08.951Z,1.41
2023-01-19T09:00:40.341Z,1.46
2023-01-19T09:03:09.428Z,1.50
2023-01-19T09:05:38.882Z,1.49
2023-01-19T09:08:09.471Z,1.49
2023-01-19T09:10:38.217Z,1.50
2023-01-19T09:13:08.363Z,1.46
2023-01-19T09:15:37.878Z,1.46
2023-01-19T09:18:07.231Z,1.47
2023-01-19T09:20:36.268Z,1.49
2023-01-19T09:23:03.573Z,1.47
2023-01-19T09:25:31.302Z,1.50
2023-01-19T09:28:00.298Z,1.52
2023-01-19T09:30:27.922Z,1.49
2023-01-19T09:32:55.101Z,1.52
2023-01-19T09:35:22.298Z,1.52
2023-01-19T09:37:49.284Z,1.50
2023-01-19T09:40:20.652Z,1.52
2023-01-19T09:43:33.963Z,1.54
2023-01-19T09:46:03.207Z,1.56
2023-01-19T09:48:51.060Z,1.56
2023-01-19T09:51:32.718Z,1.54
2023-01-19T09:54:14.173Z,1.57
2023-01-19T09:56:41.996Z,1.55
2023-01-19T09:59:36.664Z,1.55
2023-01-19T10:02:25.189Z,1.56
2023-01-19T10:05:02.484Z,1.58
2023-01-19T10:07:41.133Z,1.55
2023-01-19T10:10:27.694Z,1.60
2023-01-19T10:13:25.985Z,1.57
2023-01-19T10:16:23.650Z,1.57
2023-01-19T10:18:53.961Z,1.57
2023-01-19T10:21:37.819Z,1.57
2023-01-19T10:24:12.564Z,1.58
2023-01-19T10:27:13.690Z,1.63
2023-01-19T10:29:40.721Z,1.62
2023-01-19T10:32:13.833Z,1.61
2023-01-19T10:34:41.805Z,1.62
2023-01-19T10:37:17.678Z,1.61
2023-01-19T10:39:47.472Z,1.63
2023-01-19T10:42:17.023Z,1.64
2023-01-19T10:44:46.046Z,1.65
2023-01-19T10:47:18.256Z,1.65
2023-01-19T10:49:46.944Z,1.68
2023-01-19T10:52:29.179Z,1.70
2023-01-19T10:54:56.764Z,1.72
2023-01-19T10:57:43.532Z,1.73
2023-01-19T11:00:36.753Z,1.77
2023-01-19T11:03:28.543Z,1.78
2023-01-19T11:06:15.380Z,1.80
2023-01-19T11:08:44.297Z,1.81
2023-01-19T11:11:12.571Z,1.82
2023-01-19T11:13:41.076Z,1.84
2023-01-19T11:16:29.577Z,1.86
2023-01-19T11:18:58.096Z,1.88
2023-01-19T11:21:27.169Z,1.90
2023-01-19T11:23:59.398Z,1.91
2023-01-19T11:26:42.595Z,1.93
2023-01-19T11:29:27.438Z,1.95
2023-01-19T11:31:55.465Z,1.95
2023-01-19T11:34:26.548Z,1.95
2023-01-19T11:37:06.932Z,1.97
2023-01-19T11:39:49.861Z,1.98
2023-01-19T11:42:17.606Z,1.97
2023-01-19T11:45:17.274Z,1.98
2023-01-19T11:47:47.109Z,2.00
2023-01-19T11:50:14.159Z,2.01
2023-01-19T11:53:01.238Z,2.05
2023-01-19T11:55:53.990Z,2.05
2023-01-19T11:58:21.389Z,2.06
2023-01-19T12:01:05.476Z,2.05
2023-01-19T12:03:41.562Z,2.09
2023-01-19T12:06:18.971Z,2.09
2023-01-19T12:08:51.832Z,2.08
2023-01-19T12:11:23.408Z,2.10
2023-01-19T12:13:53.902Z,2.15
2023-01-19T12:16:23.307Z,2.12
2023-01-19T12:18:56.715Z,2.12
2023-01-19T12:21:23.684Z,2.15
2023-01-19T12:24:05.698Z,2.14
2023-01-19T12:26:35.613Z,2.15
2023-01-19T12:29:15.703Z,2.15
2023-01-19T12:31:43.438Z,2.17
2023-01-19T12:34:26.167Z,2.21
2023-01-19T12:36:56.920Z,2.22
2023-01-19T12:39:25.273Z,2.24
2023-01-19T12:42:15.352Z,2.25
2023-01-19T12:44:44.274Z,2.25
2023-01-19T12:47:12.984Z,2.26
2023-01-19T12:49:45.756Z,2.26
2023-01-19T12:52:24.444Z,2.27
2023-01-19T12:54:58.983Z,2.29
2023-01-19T12:57:56.088Z,2.30
2023-01-19T13:00:22.969Z,2.31
2023-01-19T13:03:26.805Z,2.35
2023-01-19T13:05:56.090Z,2.36
2023-01-19T13:08:25.342Z,2.36
2023-01-19T13:11:09.769Z,2.36
2023-01-19T13:13:48.466Z,2.36
2023-01-19T13:16:18.584Z,2.40
2023-01-19T13:18:55.207Z,2.40
2023-01-19T13:21:34.042Z,2.42
2023-01-19T13:24:14.970Z,2.42
2023-01-19T13:26:51.725Z,2.43
2023-01-19T13:29:41.205Z,2.49
2023-01-19T13:32:17.716Z,2.50
2023-01-19T13:34:59.421Z,2.55
2023-01-19T13:37:33.837Z,2.57
2023-01-19T13:40:02.073Z,2.58
2023-01-19T13:42:34.243Z,2.59
2023-01-19T13:45:15.620Z,2.61
2023-01-19T13:47:48.796Z,2.65
2023-01-19T13:50:31.212Z,2.68
2023-01-19T13:52:59.397Z,2.70
2023-01-19T13:55:28.930Z,2.71
2023-01-19T13:57:57.106Z,2.70
2023-01-19T14:00:26.696Z,2.70
2023-01-19T14:02:55.316Z,2.71
2023-01-19T14:05:29.506Z,2.71
2023-01-19T14:08:05.313Z,2.69
2023-01-19T14:10:34.273Z,2.69
2023-01-19T14:13:04.251Z,2.67
2023-01-19T14:15:34.399Z,2.67
2023-01-19T14:18:16.360Z,2.68
2023-01-19T14:20:56.953Z,2.72
2023-01-19T14:23:48.886Z,2.70
2023-01-19T14:26:37.833Z,2.69
2023-01-19T14:29:14.694Z,2.69
2023-01-19T14:31:50.289Z,2.69
2023-01-19T14:34:53.799Z,2.68
2023-01-19T14:37:35.245Z,2.68
2023-01-19T14:40:09.103Z,2.71
2023-01-19T14:42:39.447Z,2.70
2023-01-19T14:45:16.621Z,2.70
2023-01-19T14:47:45.335Z,2.70
2023-01-19T14:50:18.620Z,2.71
2023-01-19T14:53:10.805Z,2.74
2023-01-19T14:55:48.059Z,2.71
2023-01-19T14:58:18.047Z,2.73
2023-01-19T15:00:46.787Z,2.74
2023-01-19T15:03:14.810Z,2.75
2023-01-19T15:05:46.703Z,2.76
2023-01-19T15:08:43.505Z,2.78
2023-01-19T15:11:23.903Z,2.78
2023-01-19T15:13:51.687Z,2.73
2023-01-19T15:16:19.227Z,2.73
2023-01-19T15:18:46.148Z,2.74
2023-01-19T15:21:20.157Z,2.79
2023-01-19T15:23:47.715Z,2.78
2023-01-19T15:26:19.664Z,2.75
2023-01-19T15:28:48.878Z,2.79
2023-01-19T15:31:18.340Z,2.74
2023-01-19T15:33:45.730Z,2.74
2023-01-19T15:36:19.303Z,2.72
2023-01-19T15:38:47.224Z,2.74
2023-01-19T15:41:15.182Z,2.75
2023-01-19T15:43:42.200Z,2.78
2023-01-19T15:46:13.429Z,2.75
2023-01-19T15:48:40.488Z,2.76
2023-01-19T15:51:13.525Z,2.75
2023-01-19T15:53:43.869Z,2.74
2023-01-19T15:56:18.472Z,2.72
2023-01-19T15:58:45.585Z,2.73
2023-01-19T16:01:17.437Z,2.71
2023-01-19T16:03:44.735Z,2.72
2023-01-19T16:06:12.859Z,2.71
2023-01-19T16:08:40.241Z,2.74
2023-01-19T16:11:08.941Z,2.72
2023-01-19T16:13:36.312Z,2.72
2023-01-19T16:16:04.639Z,2.74
2023-01-19T16:18:31.907Z,2.75
2023-01-19T16:20:58.807Z,2.74
2023-01-19T16:23:25.843Z,2.74
2023-01-19T16:26:05.053Z,2.75
2023-01-19T16:28:32.287Z,2.75
2023-01-19T16:30:59.138Z,2.76
2023-01-19T16:33:26.177Z,2.79
2023-01-19T16:35:53.780Z,2.79
2023-01-19T16:38:23.381Z,2.79
2023-01-19T16:40:50.519Z,2.81
2023-01-19T16:43:18.652Z,2.81
2023-01-19T16:46:01.295Z,2.82
2023-01-19T16:48:28.967Z,2.81
2023-01-19T16:51:04.941Z,2.84
2023-01-19T16:53:34.929Z,2.86
2023-01-19T16:56:09.522Z,2.86
2023-01-19T16:58:39.461Z,2.86
2023-01-19T17:01:11.703Z,2.86
2023-01-19T17:03:39.223Z,2.86
2023-01-19T17:06:07.676Z,2.86
2023-01-19T17:08:35.263Z,2.85
2023-01-19T17:11:07.908Z,2.83
2023-01-19T17:13:34.962Z,2.82
2023-01-19T17:16:02.820Z,2.83
2023-01-19T17:18:32.855Z,2.84
2023-01-19T17:21:04.625Z,2.85
2023-01-19T17:23:32.089Z,2.87
2023-01-19T17:25:59.373Z,2.87
2023-01-19T17:28:26.858Z,2.89
2023-01-19T17:30:54.095Z,2.89
2023-01-19T17:33:22.927Z,2.88
2023-01-19T17:35:50.227Z,2.89
2023-01-19T17:38:17.751Z,2.88
2023-01-19T17:40:44.648Z,2.88
2023-01-19T17:43:11.574Z,2.86
2023-01-19T17:45:38.529Z,2.85
2023-01-19T17:48:05.667Z,2.93
2023-01-19T17:50:34.648Z,3.05
2023-01-19T17:53:01.929Z,3.02
2023-01-19T17:55:28.865Z,2.96
2023-01-19T17:57:55.842Z,2.94
2023-01-19T18:00:23.052Z,2.90
2023-01-19T18:02:51.271Z,2.90
2023-01-19T18:05:19.435Z,2.93
2023-01-19T18:07:47.797Z,2.91
2023-01-19T18:10:15.679Z,2.89
2023-01-19T18:12:43.641Z,2.88
2023-01-19T18:15:14.321Z,2.89
2023-01-19T18:17:42.842Z,2.89
2023-01-19T18:20:10.860Z,2.90
2023-01-19T18:22:38.061Z,2.90
2023-01-19T18:25:05.303Z,2.88
2023-01-19T18:27:32.365Z,2.88
2023-01-19T18:29:59.245Z,2.88
2023-01-19T18:32:27.282Z,2.87
2023-01-19T18:34:54.320Z,2.85
2023-01-19T18:37:21.528Z,2.86
2023-01-19T18:39:48.561Z,2.85
2023-01-19T18:42:15.584Z,2.86
2023-01-19T18:44:42.485Z,2.87
2023-01-19T18:47:09.591Z,2.87
2023-01-19T18:49:36.445Z,2.88
2023-01-19T18:52:04.008Z,2.87
2023-01-19T18:54:31.013Z,2.86
2023-01-19T18:56:59.328Z,2.87
2023-01-19T18:59:26.231Z,2.85
2023-01-19T19:01:53.717Z,2.88
2023-01-19T19:04:20.636Z,2.86
2023-01-19T19:06:47.702Z,2.86
2023-01-19T19:09:29.938Z,2.86
2023-01-19T19:11:56.901Z,2.88
2023-01-19T19:14:23.769Z,2.88
2023-01-19T19:16:50.823Z,2.88
2023-01-19T19:19:18.625Z,2.88
2023-01-19T19:21:45.554Z,2.89
2023-01-19T19:24:13.516Z,3.03
2023-01-19T19:26:41.981Z,3.20
2023-01-19T19:29:08.843Z,3.28
2023-01-19T19:31:35.769Z,3.28
2023-01-19T19:34:02.672Z,3.36
2023-01-19T19:36:29.950Z,3.45
2023-01-19T19:38:59.056Z,3.45
2023-01-19T19:41:28.140Z,3.44
2023-01-19T19:43:55.966Z,3.47
2023-01-19T19:46:24.481Z,3.47
2023-01-19T19:48:51.989Z,3.48
2023-01-19T19:51:27.843Z,3.49
2023-01-19T19:53:57.514Z,3.53
2023-01-19T19:56:25.713Z,3.52
2023-01-19T19:58:55.102Z,3.54
2023-01-19T20:01:27.202Z,3.57
2023-01-19T20:03:55.254Z,3.60
2023-01-19T20:06:24.369Z,3.60
2023-01-19T20:08:53.742Z,3.61
2023-01-19T20:11:27.148Z,3.60
2023-01-19T20:13:54.413Z,3.50
2023-01-19T20:16:23.210Z,3.41
2023-01-19T20:18:54.071Z,3.35
2023-01-19T20:21:30.253Z,3.31
2023-01-19T20:24:01.210Z,3.28
2023-01-19T20:26:32.755Z,3.25
2023-01-19T20:29:03.094Z,3.20
2023-01-19T20:31:32.973Z,3.19
2023-01-19T20:34:01.765Z,3.20
2023-01-19T20:36:29.020Z,3.17
2023-01-19T20:38:57.292Z,3.15
2023-01-19T20:41:25.651Z,3.14
2023-01-19T20:43:53.327Z,3.15
2023-01-19T20:46:20.318Z,3.14
2023-01-19T20:48:53.068Z,3.10
2023-01-19T20:51:20.496Z,3.24
2023-01-19T20:53:48.079Z,3.34
2023-01-19T20:56:15.572Z,3.42
2023-01-19T20:58:42.807Z,3.48
2023-01-19T21:01:17.547Z,3.53
2023-01-19T21:03:44.818Z,3.54
2023-01-19T21:06:13.463Z,3.56
2023-01-19T21:08:40.615Z,3.60
2023-01-19T21:11:08.575Z,3.63
2023-01-19T21:13:36.499Z,3.65
2023-01-19T21:16:04.344Z,3.68
2023-01-19T21:18:31.620Z,3.64
2023-01-19T21:20:58.868Z,3.65
2023-01-19T21:23:26.920Z,3.57
2023-01-19T21:25:56.342Z,3.46
2023-01-19T21:28:23.671Z,3.38
2023-01-19T21:30:51.909Z,3.33
2023-01-19T21:33:19.463Z,3.29
2023-01-19T21:35:57.511Z,3.29
2023-01-19T21:38:32.459Z,3.29
2023-01-19T21:40:59.520Z,3.28
2023-01-19T21:43:26.772Z,3.27
2023-01-19T21:45:53.755Z,3.27
2023-01-19T21:48:20.663Z,3.28
2023-01-19T21:50:56.960Z,3.29
2023-01-19T21:53:23.882Z,3.29
2023-01-19T21:55:50.792Z,3.30
2023-01-19T21:58:17.979Z,3.27
2023-01-19T22:00:45.527Z,3.27
2023-01-19T22:03:12.831Z,3.26
2023-01-19T22:05:39.767Z,3.27
2023-01-19T22:08:06.744Z,3.26
2023-01-19T22:10:37.582Z,3.27
2023-01-19T22:13:06.723Z,3.27
2023-01-19T22:15:33.826Z,3.28
2023-01-19T22:18:00.827Z,3.26
2023-01-19T22:20:27.940Z,3.25
2023-01-19T22:22:56.332Z,3.27
2023-01-19T22:25:27.769Z,3.28
2023-01-19T22:27:56.237Z,3.28
2023-01-19T22:30:23.240Z,3.28
2023-01-19T22:32:50.186Z,3.26
2023-01-19T22:35:17.103Z,3.27
2023-01-19T22:37:44.035Z,3.30
2023-01-19T22:40:11.699Z,3.27
2023-01-19T22:42:38.643Z,3.29
2023-01-19T22:45:06.041Z,3.29
2023-01-19T22:47:33.162Z,3.29
2023-01-19T22:50:00.049Z,3.30
2023-01-19T22:52:26.896Z,3.27
2023-01-19T22:54:56.382Z,3.29
2023-01-19T22:57:23.382Z,3.29
2023-01-19T22:59:50.254Z,3.31
2023-01-19T23:02:19.811Z,3.31
2023-01-19T23:04:47.521Z,3.33
2023-01-19T23:07:14.339Z,3.34
2023-01-19T23:09:41.312Z,3.38
2023-01-19T23:12:08.212Z,3.33
2023-01-19T23:14:36.237Z,3.34
2023-01-19T23:17:03.293Z,3.36
2023-01-19T23:19:30.290Z,3.38
2023-01-19T23:21:57.122Z,3.38
2023-01-19T23:24:26.683Z,3.35
2023-01-19T23:26:53.527Z,3.38
2023-01-19T23:29:20.669Z,3.39
2023-01-19T23:31:48.966Z,3.40
2023-01-19T23:34:16.667Z,3.40
2023-01-19T23:36:44.406Z,3.40
2023-01-19T23:39:22.443Z,3.40
2023-01-19T23:41:49.638Z,3.40
2023-01-19T23:44:17.310Z,3.43
2023-01-19T23:46:44.646Z,3.43
2023-01-19T23:49:12.518Z,3.42
2023-01-19T23:51:40.810Z,3.42
2023-01-19T23:54:08.322Z,3.41
2023-01-19T23:56:36.972Z,3.41
2023-01-19T23:59:06.359Z,3.41
